Time;durP1;ratioP1;P1;durP2;ratioP2;P2;SDS_P1;SDS_P2;PMS_P1;PMS_P2;Temp;Humidity;BMP_temperature;BMP_pressure;BME280_temperature;BME280_humidity;BME280_pressure;Samples;Min_cycle;Max_cycle;Signal;HPM_P1;HPM_P2
2024/01/02 00:01:35;;;;;;;14.10;7.50;;;;;;;4.20;95.90;98974.36;215720;1265;140932;-74
2024/01/02 00:06:38;;;;;;;11.50;6.30;;;;;;;4.15;96.04;98974.59;216077;1264;140602;-75
2024/01/02 00:11:42;;;;;;;10.70;6.40;;;;;;;4.12;96.13;98973.91;215908;1264;140514;-75
2024/01/02 00:16:45;;;;;;;19.00;8.10;;;;;;;4.12;96.39;98975.34;215798;1267;140749;-75
2024/01/02 00:21:48;;;;;;;15.20;7.20;;;;;;;4.12;96.61;98969.45;215920;1267;141653;-75
2024/01/02 00:26:51;;;;;;;13.70;7.20;;;;;;;4.14;96.85;98973.79;215905;1267;140403;-75
2024/01/02 00:31:54;;;;;;;16.80;7.10;;;;;;;4.18;97.02;98970.84;216885;1267;140058;-75
2024/01/02 00:36:57;;;;;;;13.90;6.30;;;;;;;4.19;96.85;98969.86;217065;1267;140498;-75
2024/01/02 00:41:59;;;;;;;12.10;6.60;;;;;;;4.21;96.90;98968.35;216077;1265;141991;-75
2024/01/02 00:47:02;;;;;;;11.90;5.50;;;;;;;4.23;97.16;98967.92;215652;1265;222760;-75
2024/01/02 00:52:05;;;;;;;13.50;6.10;;;;;;;4.25;96.95;98969.11;216774;1267;140197;-74
2024/01/02 00:57:07;;;;;;;11.10;5.80;;;;;;;4.26;97.14;98962.08;217413;1267;139725;-76
2024/01/02 01:02:10;;;;;;;12.40;6.10;;;;;;;4.30;97.06;98965.02;215951;1267;140306;-74
2024/01/02 01:07:13;;;;;;;10.60;6.30;;;;;;;4.32;97.13;98971.71;215388;1267;140919;-73
2024/01/02 01:12:17;;;;;;;12.60;7.70;;;;;;;4.33;96.90;98969.40;215777;1267;141110;-74
2024/01/02 01:17:20;;;;;;;12.40;6.80;;;;;;;4.34;97.22;98965.01;215989;1266;141816;-74
2024/01/02 01:22:23;;;;;;;10.70;5.30;;;;;;;4.35;97.22;98961.63;215482;1267;140011;-74
2024/01/02 01:27:26;;;;;;;14.90;7.50;;;;;;;4.34;97.01;98963.91;216452;1266;139722;-74
2024/01/02 01:32:29;;;;;;;13.00;6.50;;;;;;;4.34;97.10;98957.86;215807;1264;139973;-74
2024/01/02 01:37:32;;;;;;;15.90;7.20;;;;;;;4.37;97.25;98958.95;215692;1267;140564;-74
2024/01/02 01:42:36;;;;;;;13.30;6.50;;;;;;;4.38;97.25;98954.75;215793;1265;140079;-73
2024/01/02 01:47:39;;;;;;;13.30;6.50;;;;;;;4.38;97.23;98964.73;216074;1264;139561;-74
2024/01/02 01:52:43;;;;;;;7.10;4.40;;;;;;;4.39;97.10;98959.22;215767;1267;139552;-74
2024/01/02 01:57:46;;;;;;;10.20;6.70;;;;;;;4.40;97.42;98957.62;215916;1267;140448;-74
2024/01/02 02:02:49;;;;;;;13.30;8.50;;;;;;;4.42;97.60;98955.98;216024;1264;139667;-73
2024/01/02 02:07:55;;;;;;;15.10;6.20;;;;;;;4.40;97.21;98953.92;215589;1265;233439;-75
2024/01/02 02:12:58;;;;;;;10.80;7.40;;;;;;;4.37;97.25;98951.39;215685;1266;140281;-74
2024/01/02 02:18:01;;;;;;;8.60;5.60;;;;;;;4.37;97.61;98959.14;216847;1264;139813;-74
2024/01/02 02:23:04;;;;;;;9.60;6.30;;;;;;;4.38;97.43;98962.91;215961;1267;139818;-74
2024/01/02 02:28:07;;;;;;;15.40;6.30;;;;;;;4.39;97.50;98960.91;215740;1265;141202;-73
2024/01/02 02:33:11;;;;;;;20.90;7.50;;;;;;;4.40;97.53;98962.42;215874;1265;140789;-74
2024/01/02 02:38:14;;;;;;;8.00;6.60;;;;;;;4.40;97.58;98965.95;215786;1264;140168;-74
2024/01/02 02:43:17;;;;;;;12.90;9.50;;;;;;;4.40;97.33;98959.09;215948;1264;140531;-74
2024/01/02 02:48:20;;;;;;;13.50;6.80;;;;;;;4.42;97.78;98953.92;216157;1267;151178;-75
2024/01/02 02:53:23;;;;;;;6.80;6.00;;;;;;;4.43;97.45;98949.41;217601;1265;154025;-74
2024/01/02 02:58:26;;;;;;;13.00;6.90;;;;;;;4.44;97.81;98945.86;215786;1267;140031;-76
2024/01/02 03:03:30;;;;;;;11.10;6.40;;;;;;;4.43;97.56;98940.72;215847;1264;141055;-74
2024/01/02 03:08:34;;;;;;;11.70;8.40;;;;;;;4.43;97.55;98943.69;215589;1267;142705;-74
2024/01/02 03:13:39;;;;;;;10.50;6.80;;;;;;;4.46;97.67;98945.57;216650;1267;140585;-74
2024/01/02 03:18:43;;;;;;;12.90;8.40;;;;;;;4.47;97.85;98940.36;215982;1264;140699;-74
2024/01/02 03:23:46;;;;;;;12.40;10.90;;;;;;;4.48;97.58;98939.88;216014;1267;140663;-75
2024/01/02 03:28:50;;;;;;;11.30;7.30;;;;;;;4.48;97.86;98941.78;215715;1267;141915;-74
2024/01/02 03:33:53;;;;;;;9.90;6.70;;;;;;;4.50;97.90;98946.16;215696;1265;141765;-76
2024/01/02 03:38:55;;;;;;;13.60;7.30;;;;;;;4.50;97.60;98943.95;215874;1267;140447;-74
2024/01/02 03:43:59;;;;;;;7.90;5.30;;;;;;;4.51;97.82;98946.11;215733;1265;139982;-73
2024/01/02 03:49:02;;;;;;;7.60;6.60;;;;;;;4.51;97.76;98950.33;216888;1267;141032;-74
2024/01/02 03:54:06;;;;;;;8.30;6.10;;;;;;;4.49;97.70;98949.89;216864;1267;140385;-75
2024/01/02 03:59:09;;;;;;;10.10;6.00;;;;;;;4.48;97.95;98951.81;218975;1264;139868;-76
2024/01/02 04:04:13;;;;;;;10.80;6.20;;;;;;;4.48;97.90;98949.58;218119;1264;140277;-74
2024/01/02 04:09:15;;;;;;;10.50;5.70;;;;;;;4.47;98.02;98949.63;215929;1266;140372;-75
2024/01/02 04:14:19;;;;;;;8.80;8.00;;;;;;;4.49;97.97;98944.24;215919;1267;140041;-74
2024/01/02 04:19:22;;;;;;;13.30;8.40;;;;;;;4.50;97.87;98944.05;215757;1267;141018;-74
2024/01/02 04:24:25;;;;;;;12.70;5.30;;;;;;;4.50;98.06;98949.33;217214;1267;140657;-75
2024/01/02 04:29:28;;;;;;;7.50;6.00;;;;;;;4.50;97.81;98949.61;215809;1268;140059;-76
2024/01/02 04:34:32;;;;;;;5.70;5.00;;;;;;;4.50;98.17;98951.23;216265;1264;139902;-74
2024/01/02 04:39:39;;;;;;;;;;;;;;;4.49;98.08;98957.17;215606;1267;139498;-74
2024/01/02 04:44:42;;;;;;;11.00;7.60;;;;;;;4.46;98.38;98961.65;216219;1264;126545;-75
2024/01/02 04:49:45;;;;;;;10.20;7.10;;;;;;;4.47;98.19;98962.29;215735;1267;141764;-74
2024/01/02 04:54:48;;;;;;;8.10;6.00;;;;;;;4.47;98.32;98962.30;215964;1267;141775;-75
2024/01/02 04:59:51;;;;;;;9.60;8.60;;;;;;;4.46;98.16;98960.88;215677;1267;139661;-75
2024/01/02 05:04:55;;;;;;;12.90;7.80;;;;;;;4.47;98.21;98957.05;215735;1267;141496;-74
2024/01/02 05:09:58;;;;;;;8.60;6.70;;;;;;;4.49;98.71;98959.64;215603;1264;139531;-74
2024/01/02 05:15:02;;;;;;;12.00;8.80;;;;;;;4.49;98.14;98958.86;215769;1264;140643;-74
2024/01/02 05:20:06;;;;;;;11.40;8.50;;;;;;;4.49;98.54;98960.90;215712;1270;141179;-72
2024/01/02 05:25:13;;;;;;;10.90;9.30;;;;;;;4.49;98.46;98961.87;216763;1266;140364;-72
2024/01/02 05:30:15;;;;;;;9.50;8.60;;;;;;;4.52;98.40;98966.08;215791;1264;141944;-72
2024/01/02 05:35:19;;;;;;;10.90;8.00;;;;;;;4.53;98.18;98972.30;215885;1269;139466;-74
2024/01/02 05:40:22;;;;;;;11.60;9.60;;;;;;;4.50;98.08;98972.10;215925;1263;140600;-72
2024/01/02 05:45:25;;;;;;;12.40;10.50;;;;;;;4.48;98.05;98966.55;216331;1268;140884;-74
2024/01/02 05:50:27;;;;;;;12.20;9.40;;;;;;;4.47;98.28;98967.61;217108;1268;141308;-72
2024/01/02 05:55:30;;;;;;;11.80;9.10;;;;;;;4.48;98.37;98970.11;215931;1264;140682;-74
2024/01/02 06:00:33;;;;;;;15.40;11.20;;;;;;;4.48;98.29;98968.02;215827;1269;205508;-75
2024/01/02 06:05:35;;;;;;;11.50;10.30;;;;;;;4.48;98.27;98963.88;216123;1264;141277;-75
2024/01/02 06:10:38;;;;;;;12.50;9.60;;;;;;;4.49;98.32;98962.64;216567;1267;140647;-74
2024/01/02 06:15:41;;;;;;;10.00;9.00;;;;;;;4.50;98.48;98960.27;215930;1263;139675;-73
2024/01/02 06:20:44;;;;;;;14.60;9.70;;;;;;;4.52;98.49;98964.65;216492;1264;140636;-74
2024/01/02 06:25:47;;;;;;;14.40;12.20;;;;;;;4.53;98.54;98969.20;216796;1267;140193;-73
2024/01/02 06:30:49;;;;;;;12.70;10.20;;;;;;;4.54;98.39;98967.85;216256;1264;141040;-76
2024/01/02 06:35:52;;;;;;;11.00;9.10;;;;;;;4.55;98.57;98973.57;215921;1267;139743;-73
2024/01/02 06:40:55;;;;;;;8.50;7.60;;;;;;;4.54;98.33;98962.05;216109;1263;152439;-72
2024/01/02 06:45:58;;;;;;;12.00;9.30;;;;;;;4.53;98.22;98970.66;216012;1265;140655;-73
2024/01/02 06:51:01;;;;;;;12.60;11.10;;;;;;;4.50;98.30;98973.73;216041;1264;140379;-75
2024/01/02 06:56:05;;;;;;;11.40;9.20;;;;;;;4.50;98.62;98975.19;216869;1264;140918;-76
2024/01/02 07:01:08;;;;;;;12.30;9.50;;;;;;;4.50;98.59;98973.20;215963;1267;141057;-74
2024/01/02 07:06:10;;;;;;;8.40;6.80;;;;;;;4.51;98.37;98961.98;216247;1269;140572;-73
2024/01/02 07:11:13;;;;;;;8.50;7.60;;;;;;;4.50;98.45;98964.50;216143;1264;139880;-74
2024/01/02 07:16:15;;;;;;;12.60;7.80;;;;;;;4.49;98.22;98962.48;215736;1264;140897;-73
2024/01/02 07:21:18;;;;;;;7.00;5.70;;;;;;;4.51;98.10;98965.15;216208;1264;139735;-79
2024/01/02 07:26:20;;;;;;;10.30;7.70;;;;;;;4.53;98.35;98964.73;216109;1264;139492;-75
2024/01/02 07:31:23;;;;;;;11.50;7.30;;;;;;;4.55;98.40;98962.98;215884;1263;140842;-75
2024/01/02 07:36:26;;;;;;;9.40;7.00;;;;;;;4.59;98.31;98962.76;215988;1267;139692;-76
2024/01/02 07:41:29;;;;;;;8.90;5.80;;;;;;;4.59;98.22;98961.91;216481;1264;139669;-75
2024/01/02 07:46:31;;;;;;;10.50;5.50;;;;;;;4.61;98.02;98968.10;216165;1264;141548;-74
2024/01/02 07:51:34;;;;;;;6.60;4.50;;;;;;;4.62;98.20;98964.23;216284;1266;139885;-73
2024/01/02 07:56:36;;;;;;;7.30;6.20;;;;;;;4.62;98.27;98961.55;216179;1267;141774;-72
2024/01/02 08:01:39;;;;;;;7.60;5.60;;;;;;;4.64;98.07;98963.57;216065;1264;140658;-73
2024/01/02 08:06:42;;;;;;;7.50;5.50;;;;;;;4.67;97.95;98958.96;216716;1264;140350;-73
2024/01/02 08:11:46;;;;;;;8.70;5.30;;;;;;;4.70;98.11;98956.05;216184;1267;140292;-73
2024/01/02 08:16:50;;;;;;;7.30;4.10;;;;;;;4.75;98.02;98948.55;216029;1264;139686;-72
2024/01/02 08:21:53;;;;;;;7.60;4.50;;;;;;;4.79;97.74;98947.14;215767;1264;139744;-73
2024/01/02 08:26:57;;;;;;;5.20;4.70;;;;;;;4.82;97.78;98945.68;215923;1264;140091;-74
2024/01/02 08:32:00;;;;;;;6.60;5.10;;;;;;;4.87;97.70;98957.19;217131;1264;141143;-74
2024/01/02 08:37:03;;;;;;;6.50;4.10;;;;;;;4.90;97.63;98956.30;216295;1264;141587;-75
2024/01/02 08:42:06;;;;;;;7.40;4.70;;;;;;;4.91;97.73;98955.42;216243;1267;139707;-73
2024/01/02 08:47:09;;;;;;;12.00;6.00;;;;;;;4.94;97.75;98951.41;215781;1264;140627;-75
2024/01/02 08:52:13;;;;;;;9.50;5.10;;;;;;;4.99;97.70;98953.89;215913;1264;141595;-75
2024/01/02 08:57:15;;;;;;;11.70;5.20;;;;;;;5.00;97.24;98959.94;216352;1264;140446;-76
2024/01/02 09:02:19;;;;;;;9.20;6.30;;;;;;;5.03;97.60;98953.81;216020;1264;140374;-74
2024/01/02 09:07:22;;;;;;;11.90;5.90;;;;;;;5.07;97.23;98954.15;216128;1266;139960;-76
2024/01/02 09:12:25;;;;;;;11.10;4.90;;;;;;;5.09;97.41;98954.05;216350;1267;139932;-75
2024/01/02 09:17:29;;;;;;;7.70;5.50;;;;;;;5.13;97.24;98948.89;216082;1264;140227;-76
2024/01/02 09:22:32;;;;;;;10.00;4.80;;;;;;;5.18;97.25;98952.63;216322;1263;141558;-74
2024/01/02 09:27:37;;;;;;;7.60;5.00;;;;;;;5.25;97.14;98954.04;216089;1263;140285;-73
2024/01/02 09:32:40;;;;;;;10.50;7.10;;;;;;;5.31;97.21;98950.15;216798;1264;141198;-74
2024/01/02 09:37:44;;;;;;;10.50;4.40;;;;;;;5.40;97.14;98949.99;216250;1263;141081;-76
2024/01/02 09:43:10;;;;;;;6.90;5.90;;;;;;;5.47;96.86;98948.37;217207;1267;141459;-75
2024/01/02 09:48:32;;;;;;;8.50;4.60;;;;;;;5.52;96.52;98938.13;216286;1267;140453;-76
2024/01/02 09:54:04;;;;;;;8.90;4.40;;;;;;;5.53;96.21;98926.52;216213;1263;139683;-75
2024/01/02 09:59:10;;;;;;;12.90;4.70;;;;;;;5.56;96.32;98919.00;216754;1266;140282;-77
2024/01/02 10:04:40;;;;;;;11.60;4.80;;;;;;;5.64;96.31;98911.60;216153;1264;139690;-78
2024/01/02 10:10:08;;;;;;;10.20;5.10;;;;;;;5.70;96.04;98912.05;216165;1264;140384;-76
2024/01/02 10:15:30;;;;;;;12.10;4.10;;;;;;;5.71;95.88;98903.66;215942;1265;139588;-73
2024/01/02 10:21:14;;;;;;;8.00;3.70;;;;;;;5.75;95.74;98890.42;216584;1266;142067;-76
2024/01/02 10:26:22;;;;;;;7.10;5.30;;;;;;;5.90;95.70;98886.57;218148;1263;141182;-75
2024/01/02 10:32:05;;;;;;;8.20;5.20;;;;;;;5.95;95.34;98884.75;215514;1266;776703;-75
2024/01/02 10:37:13;;;;;;;9.90;5.10;;;;;;;6.20;96.25;98884.91;217002;1263;140163;-74
2024/01/02 10:42:40;;;;;;;11.00;4.70;;;;;;;6.38;95.05;98874.02;216110;1267;139776;-79
2024/01/02 10:48:13;;;;;;;8.00;5.10;;;;;;;6.44;94.78;98873.97;216125;1264;139983;-80
2024/01/02 10:53:48;;;;;;;8.00;3.50;;;;;;;6.50;94.36;98861.05;216276;1267;140023;-75
2024/01/02 10:59:11;;;;;;;8.50;3.60;;;;;;;6.60;94.03;98858.48;216157;1264;139233;-77
2024/01/02 11:04:38;;;;;;;11.20;4.20;;;;;;;6.73;93.88;98848.28;216573;1264;140487;-73
2024/01/02 11:09:49;;;;;;;6.40;3.70;;;;;;;6.82;93.32;98840.48;216528;1264;141381;-74
2024/01/02 11:14:52;;;;;;;6.50;4.60;;;;;;;6.83;93.19;98829.54;216088;1267;139786;-74
2024/01/02 11:20:03;;;;;;;4.80;3.30;;;;;;;6.84;92.46;98815.67;217512;1264;139867;-73
2024/01/02 11:25:10;;;;;;;16.00;5.60;;;;;;;6.88;92.40;98805.41;216074;1264;139531;-72
2024/01/02 11:30:14;;;;;;;7.20;2.50;;;;;;;6.93;92.53;98793.83;216102;1264;140489;-77
2024/01/02 11:35:17;;;;;;;11.10;6.00;;;;;;;6.92;92.08;98788.18;216036;1262;140085;-78
2024/01/02 11:40:28;;;;;;;12.10;4.50;;;;;;;7.00;91.64;98783.33;216047;1264;140028;-76
2024/01/02 11:45:33;;;;;;;6.90;4.30;;;;;;;7.13;91.59;98770.58;216195;1267;140521;-73
2024/01/02 11:50:44;;;;;;;9.00;3.60;;;;;;;7.22;91.17;98762.98;216168;1263;140413;-73
2024/01/02 11:55:58;;;;;;;7.40;3.60;;;;;;;7.18;90.55;98751.07;216814;1263;140224;-76
2024/01/02 12:01:07;;;;;;;11.00;3.40;;;;;;;7.12;90.42;98743.89;216955;1264;139764;-73
2024/01/02 12:06:21;;;;;;;6.90;3.10;;;;;;;7.11;89.98;98734.77;216403;1263;140917;-76
2024/01/02 12:11:29;;;;;;;7.10;3.20;;;;;;;7.04;89.59;98730.56;216060;1264;140148;-74
2024/01/02 12:16:36;;;;;;;10.60;4.20;;;;;;;6.94;89.65;98722.38;217798;1267;140267;-75
2024/01/02 12:21:40;;;;;;;9.40;4.10;;;;;;;6.89;89.74;98718.05;216208;1267;141418;-75
2024/01/02 12:26:48;;;;;;;7.40;4.40;;;;;;;6.85;89.25;98710.80;215881;1267;141201;-76
2024/01/02 12:32:00;;;;;;;12.70;6.50;;;;;;;6.78;89.26;98701.76;216073;1267;140057;-74
2024/01/02 12:37:15;;;;;;;6.50;3.50;;;;;;;6.77;89.00;98696.33;216151;1266;139854;-73
2024/01/02 12:42:23;;;;;;;8.90;3.90;;;;;;;6.70;88.83;98693.98;216040;1264;139509;-74
2024/01/02 12:47:28;;;;;;;;;;;;;;;6.59;88.52;98695.28;215890;1267;139583;-75
2024/01/02 12:52:38;;;;;;;8.20;3.40;;;;;;;6.55;88.73;98694.90;216269;1264;125989;-72
2024/01/02 12:57:42;;;;;;;5.20;3.10;;;;;;;6.56;88.59;98690.98;216071;1264;139365;-79
2024/01/02 13:02:46;;;;;;;9.40;5.00;;;;;;;6.41;87.89;98673.05;216219;1265;139550;-80
2024/01/02 13:07:49;;;;;;;23.10;6.20;;;;;;;6.25;87.78;98668.52;215988;1267;139498;-78
2024/01/02 13:12:53;;;;;;;7.00;4.90;;;;;;;6.11;87.97;98663.10;216126;1267;140687;-75
2024/01/02 13:17:59;;;;;;;6.00;4.60;;;;;;;6.02;88.08;98658.58;215990;1267;140395;-74
2024/01/02 13:23:05;;;;;;;10.30;4.70;;;;;;;5.91;88.50;98656.47;219102;1265;140101;-71
2024/01/02 13:28:26;;;;;;;9.40;5.00;;;;;;;5.84;88.08;98657.65;218193;1264;140168;-71
2024/01/02 13:33:42;;;;;;;12.00;5.40;;;;;;;5.76;88.27;98657.02;216001;1267;139616;-71
2024/01/02 13:38:45;;;;;;;16.60;6.20;;;;;;;5.71;88.64;98653.80;216218;1267;139582;-74
2024/01/02 13:43:49;;;;;;;25.50;8.80;;;;;;;5.62;88.26;98644.64;216089;1264;139806;-74
2024/01/02 13:48:59;;;;;;;17.90;6.40;;;;;;;5.58;88.79;98642.00;215894;1264;140768;-72
2024/01/02 13:54:07;;;;;;;10.30;6.00;;;;;;;5.56;88.58;98642.41;216119;1264;139852;-72
2024/01/02 13:59:12;;;;;;;19.30;8.20;;;;;;;5.52;88.76;98636.94;215970;1264;139881;-72
2024/01/02 14:04:21;;;;;;;20.70;6.80;;;;;;;5.47;88.77;98627.91;216102;1265;139795;-73
2024/01/02 14:09:25;;;;;;;10.40;6.30;;;;;;;5.38;89.08;98625.11;215973;1264;139698;-76
2024/01/02 14:14:39;;;;;;;15.00;6.90;;;;;;;5.29;88.88;98621.53;216382;1267;140261;-75
2024/01/02 14:19:56;;;;;;;14.40;6.80;;;;;;;5.23;88.43;98619.00;215850;1265;140729;-72
2024/01/02 14:25:29;;;;;;;14.10;5.80;;;;;;;5.16;88.53;98610.55;215808;1264;140067;-78
2024/01/02 14:30:37;;;;;;;11.40;8.00;;;;;;;5.04;89.00;98596.70;215834;1264;140767;-72
2024/01/02 14:35:57;;;;;;;10.90;7.60;;;;;;;4.95;89.05;98586.73;215590;1264;140682;-73
2024/01/02 14:41:32;;;;;;;11.20;6.10;;;;;;;4.88;89.19;98579.86;215577;1264;139788;-71
2024/01/02 14:47:04;;;;;;;16.00;8.30;;;;;;;4.84;89.06;98568.57;215548;1265;140039;-71
2024/01/02 14:52:12;;;;;;;18.50;9.80;;;;;;;4.80;89.23;98560.86;215718;1267;139617;-70
2024/01/02 14:57:31;;;;;;;16.10;7.40;;;;;;;4.76;89.46;98551.88;216113;1267;139970;-72
2024/01/02 15:02:57;;;;;;;18.40;8.40;;;;;;;4.68;88.95;98544.96;215836;1265;140549;-70
2024/01/02 15:08:05;;;;;;;22.40;9.40;;;;;;;4.61;89.45;98536.65;215988;1266;140263;-74
2024/01/02 15:13:12;;;;;;;22.50;10.60;;;;;;;4.58;89.41;98538.33;216996;1265;141572;-73
2024/01/02 15:18:29;;;;;;;20.20;10.80;;;;;;;4.56;89.54;98528.27;216444;1264;139917;-71
2024/01/02 15:23:40;;;;;;;21.20;9.90;;;;;;;4.51;89.60;98517.56;216985;1266;140590;-74
2024/01/02 15:28:54;;;;;;;20.90;9.30;;;;;;;4.46;89.74;98513.74;215925;1265;140445;-73
2024/01/02 15:34:19;;;;;;;18.30;10.70;;;;;;;4.40;89.61;98502.45;215948;1264;140513;-74
2024/01/02 15:39:39;;;;;;;19.40;8.00;;;;;;;4.39;89.86;98492.69;217523;1264;139962;-72
2024/01/02 15:44:55;;;;;;;17.30;9.20;;;;;;;4.39;89.92;98493.16;216442;1264;140214;-73
2024/01/02 15:50:08;;;;;;;19.20;8.90;;;;;;;4.37;89.86;98490.63;216284;1264;140568;-72
2024/01/02 15:55:14;;;;;;;20.20;8.90;;;;;;;4.37;90.32;98482.55;217033;1265;145065;-73
2024/01/02 16:00:23;;;;;;;19.20;8.80;;;;;;;4.35;90.10;98470.90;216110;1266;140443;-74
2024/01/02 16:06:04;;;;;;;19.30;9.50;;;;;;;4.36;90.59;98467.10;215809;1267;141036;-73
2024/01/02 16:11:19;;;;;;;19.20;7.10;;;;;;;4.36;90.64;98458.98;214959;1274;140126;-72
2024/01/02 16:16:43;;;;;;;10.70;6.50;;;;;;;4.35;90.50;98452.48;215622;1267;139725;-72
2024/01/02 16:22:05;;;;;;;7.60;4.90;;;;;;;4.34;90.52;98451.44;216037;1265;139963;-72
2024/01/02 16:27:44;;;;;;;9.80;5.80;;;;;;;4.32;90.92;98444.64;216004;1264;140406;-74
2024/01/02 16:33:03;;;;;;;11.80;6.10;;;;;;;4.33;91.03;98435.05;216101;1262;140192;-70
2024/01/02 16:38:08;;;;;;;12.50;4.50;;;;;;;4.29;91.31;98436.48;216717;1265;140144;-77
2024/01/02 16:43:12;;;;;;;8.50;5.10;;;;;;;4.28;91.19;98433.88;215913;1264;140075;-72
2024/01/02 16:48:19;;;;;;;7.10;3.90;;;;;;;4.25;91.46;98428.55;217197;1264;139686;-71
2024/01/02 16:53:24;;;;;;;;;;;;;;;4.25;91.41;98425.21;216910;1265;140700;-71
2024/01/02 16:58:31;;;;;;;6.70;4.90;;;;;;;4.17;91.46;98422.27;216928;1267;125903;-71
2024/01/02 17:03:37;;;;;;;13.90;7.90;;;;;;;4.14;91.63;98413.02;216526;1265;140242;-72
2024/01/02 17:08:42;;;;;;;12.20;7.40;;;;;;;4.12;91.74;98404.98;216148;1267;139861;-71
2024/01/02 17:13:45;;;;;;;11.30;5.30;;;;;;;4.06;92.02;98399.27;215825;1264;142695;-72
2024/01/02 17:18:49;;;;;;;9.40;5.50;;;;;;;4.01;92.03;98387.68;215884;1267;140024;-71
2024/01/02 17:23:51;;;;;;;6.20;3.70;;;;;;;3.95;92.15;98369.30;216185;1267;139825;-72
2024/01/02 17:28:57;;;;;;;9.40;5.70;;;;;;;3.92;92.38;98368.48;216088;1267;139884;-70
2024/01/02 17:34:09;;;;;;;6.30;3.60;;;;;;;3.89;92.40;98358.60;215878;1267;139542;-70
2024/01/02 17:39:12;;;;;;;5.90;4.60;;;;;;;3.88;92.63;98344.70;215958;1265;140693;-69
2024/01/02 17:44:23;;;;;;;5.20;3.40;;;;;;;3.87;92.58;98332.91;215957;1266;140031;-68
2024/01/02 17:49:26;;;;;;;8.30;4.30;;;;;;;3.86;92.85;98332.20;215844;1265;139665;-70
2024/01/02 17:54:29;;;;;;;17.90;7.20;;;;;;;3.87;92.78;98323.63;215883;1263;139511;-70
2024/01/02 17:59:41;;;;;;;17.60;6.20;;;;;;;3.85;92.79;98309.71;216266;1266;140533;-70
2024/01/02 18:05:19;;;;;;;12.30;7.70;;;;;;;3.81;92.84;98301.23;215930;1264;139888;-70
2024/01/02 18:10:32;;;;;;;11.30;6.20;;;;;;;3.80;93.03;98292.73;215416;1265;141762;-70
2024/01/02 18:15:49;;;;;;;11.40;7.10;;;;;;;3.79;93.23;98287.33;216126;1264;140357;-69
2024/01/02 18:21:28;;;;;;;16.20;8.10;;;;;;;3.75;93.15;98280.52;215806;1263;139751;-70
2024/01/02 18:26:57;;;;;;;13.60;7.80;;;;;;;3.69;93.30;98279.59;215941;1267;139718;-68
2024/01/02 18:32:14;;;;;;;17.60;10.20;;;;;;;3.68;93.30;98264.24;215946;1265;141497;-69
2024/01/02 18:37:54;;;;;;;17.20;7.40;;;;;;;3.70;93.47;98252.95;217613;1264;140680;-68
2024/01/02 18:43:03;;;;;;;19.30;10.20;;;;;;;3.70;93.43;98243.66;215808;1265;139516;-69
2024/01/02 18:48:17;;;;;;;19.20;8.80;;;;;;;3.70;93.69;98236.88;216137;1264;140129;-72
2024/01/02 18:53:35;;;;;;;15.60;8.90;;;;;;;3.70;93.74;98228.45;216423;1267;139946;-74
2024/01/02 18:58:43;;;;;;;15.30;9.20;;;;;;;3.71;93.95;98225.35;216216;1264;139381;-73
2024/01/02 19:03:46;;;;;;;16.00;9.60;;;;;;;3.71;93.88;98217.39;216067;1265;139415;-74
2024/01/02 19:08:51;;;;;;;14.00;8.80;;;;;;;3.72;94.02;98207.51;215913;1265;139701;-72
2024/01/02 19:13:59;;;;;;;16.30;9.40;;;;;;;3.74;94.00;98196.21;216280;1267;140636;-76
2024/01/02 19:19:02;;;;;;;18.30;8.30;;;;;;;3.75;93.86;98185.33;218398;1264;139883;-74
2024/01/02 19:24:08;;;;;;;15.60;9.20;;;;;;;3.76;93.71;98175.34;215896;1264;140739;-74
2024/01/02 19:29:12;;;;;;;23.60;11.10;;;;;;;3.74;93.93;98165.55;216482;1264;140567;-75
2024/01/02 19:34:14;;;;;;;19.30;11.20;;;;;;;3.74;93.94;98154.84;216564;1264;140943;-77
2024/01/02 19:39:21;;;;;;;18.90;10.60;;;;;;;3.76;93.90;98151.25;217616;1264;141097;-74
2024/01/02 19:44:25;;;;;;;19.70;9.70;;;;;;;3.77;94.05;98152.28;216050;1265;140920;-81
2024/01/02 19:49:28;;;;;;;18.30;11.10;;;;;;;3.81;94.19;98148.09;215963;1265;139840;-78
2024/01/02 19:54:31;;;;;;;25.40;9.80;;;;;;;3.83;94.04;98134.19;216014;1267;139981;-77
2024/01/02 19:59:33;;;;;;;15.50;9.00;;;;;;;3.83;93.94;98124.00;216713;1264;140311;-76
2024/01/02 20:04:36;;;;;;;19.00;11.70;;;;;;;3.84;94.00;98113.61;216284;1264;140556;-76
2024/01/02 20:09:40;;;;;;;13.00;8.50;;;;;;;3.86;94.16;98104.66;216005;1267;139939;-73
2024/01/02 20:14:50;;;;;;;15.60;7.60;;;;;;;3.87;93.89;98092.30;215852;1264;140251;-76
2024/01/02 20:19:55;;;;;;;17.10;9.00;;;;;;;3.88;94.09;98088.06;216354;1263;139626;-74
2024/01/02 20:24:58;;;;;;;18.40;7.60;;;;;;;3.89;93.93;98090.98;216655;1264;140436;-80
2024/01/02 20:30:03;;;;;;;14.50;7.30;;;;;;;3.91;94.01;98092.14;216399;1267;139808;-81
2024/01/02 20:35:06;;;;;;;16.40;8.10;;;;;;;3.91;93.83;98086.45;216231;1267;141131;-78
2024/01/02 20:40:24;;;;;;;17.00;7.60;;;;;;;3.89;93.95;98066.89;216408;1265;139843;-77
2024/01/02 20:45:27;;;;;;;40.00;17.30;;;;;;;3.90;94.05;98055.79;215938;1266;140622;-77
2024/01/02 20:50:34;;;;;;;16.00;8.60;;;;;;;3.94;94.01;98054.02;216076;1265;139963;-78
2024/01/02 20:55:41;;;;;;;18.50;8.40;;;;;;;3.94;93.89;98051.06;216115;1265;140650;-77
2024/01/02 21:00:44;;;;;;;20.20;7.90;;;;;;;3.93;94.13;98046.16;216172;1268;139948;-74
2024/01/02 21:05:47;;;;;;;15.60;7.40;;;;;;;3.95;93.91;98043.66;216136;1267;139951;-77
2024/01/02 21:10:55;;;;;;;13.70;7.00;;;;;;;3.92;93.86;98034.42;215850;1267;141593;-80
2024/01/02 21:16:05;;;;;;;;;;;;;;;3.92;93.73;98032.80;216552;1267;141475;-75
2024/01/02 21:21:32;;;;;;;14.50;7.60;;;;;;;3.92;94.03;98029.56;216325;1264;126375;-77
2024/01/02 21:26:35;;;;;;;15.10;8.90;;;;;;;3.95;93.99;98020.89;215854;1264;140538;-78
2024/01/02 21:31:37;;;;;;;14.70;7.20;;;;;;;3.98;93.86;98015.08;217785;1265;141119;-81
2024/01/02 21:36:40;;;;;;;10.20;6.30;;;;;;;3.99;93.86;98009.08;216079;1263;139917;-77
2024/01/02 21:41:44;;;;;;;11.40;7.30;;;;;;;4.00;93.92;98003.89;216725;1264;139865;-74
2024/01/02 21:46:54;;;;;;;13.60;7.90;;;;;;;4.01;93.90;97989.52;215919;1267;141532;-74
2024/01/02 21:52:02;;;;;;;13.90;7.80;;;;;;;4.01;93.76;97983.48;216023;1267;140981;-73
2024/01/02 21:57:06;;;;;;;10.90;6.50;;;;;;;4.02;93.87;97976.92;216057;1268;139552;-78
2024/01/02 22:02:27;;;;;;;11.50;7.30;;;;;;;4.02;93.92;97973.08;215974;1268;140352;-75
2024/01/02 22:07:33;;;;;;;14.10;8.50;;;;;;;4.01;94.05;97959.95;215834;1267;140404;-75
2024/01/02 22:12:36;;;;;;;16.40;8.00;;;;;;;3.97;93.83;97954.74;216073;1268;140535;-75
2024/01/02 22:17:39;;;;;;;15.60;7.70;;;;;;;3.96;93.99;97949.71;216289;1266;140266;-78
2024/01/02 22:22:43;;;;;;;12.60;6.70;;;;;;;3.96;94.36;97934.61;216890;1267;140684;-77
2024/01/02 22:27:46;;;;;;;15.80;9.00;;;;;;;3.99;94.12;97932.10;216232;1267;140719;-72
2024/01/02 22:32:49;;;;;;;15.70;8.00;;;;;;;4.01;94.22;97926.91;215775;1264;333061;-75
2024/01/02 22:37:57;;;;;;;14.20;8.00;;;;;;;4.01;94.31;97917.37;216081;1267;139791;-76
2024/01/02 22:42:59;;;;;;;11.60;7.80;;;;;;;4.00;94.32;97912.35;215948;1267;140601;-76
2024/01/02 22:48:02;;;;;;;13.00;6.10;;;;;;;3.98;94.60;97902.45;216090;1267;140354;-76
2024/01/02 22:53:05;;;;;;;9.80;6.50;;;;;;;3.98;94.69;97897.17;216080;1267;140515;-76
2024/01/02 22:58:11;;;;;;;9.50;5.90;;;;;;;3.96;94.64;97888.25;216266;1264;141203;-73
2024/01/02 23:03:15;;;;;;;10.30;7.10;;;;;;;3.95;94.66;97882.01;216105;1267;139720;-73
2024/01/02 23:08:22;;;;;;;12.00;8.70;;;;;;;3.92;94.96;97869.89;216256;1269;139689;-78
2024/01/02 23:13:40;;;;;;;13.50;8.60;;;;;;;3.90;95.08;97860.20;215914;1267;140576;-77
2024/01/02 23:19:01;;;;;;;;;;;;;;;3.88;95.17;97858.27;216086;1267;139856;-74
2024/01/02 23:24:08;;;;;;;15.60;9.50;;;;;;;3.85;95.45;97853.21;217214;1268;126122;-78
2024/01/02 23:29:23;;;;;;;19.70;9.40;;;;;;;3.85;95.62;97840.08;216301;1266;140336;-78
2024/01/02 23:34:42;;;;;;;12.90;7.20;;;;;;;3.88;95.75;97833.48;216074;1269;140066;-79
2024/01/02 23:39:44;;;;;;;9.30;6.70;;;;;;;3.90;95.65;97826.20;216226;1270;141890;-77